.
WxDataArchive / Data Records for 2013-06-22
2013-06-21 June 2013 2013-06-23

Data Records for Saturday, 22 June 2013

Time	Temp	Chill	HIndex	Humid	Dewpt	 Wind 	HiWind	WindDir	Rain 	Barom 
-----	----	-----	------	-----	-----	------	------	-------	-----	----- 
00:00	74.9	74.9	74.9	58	59.1	0	0	---	0.00	30.067 
00:05	74.9	74.9	74.9	58	59.1	0	0	---	0.00	30.067 
00:10	74.9	74.9	74.9	59	59.6	0	0	---	0.00	30.067 
00:15	74.9	74.9	74.9	59	59.6	0	0	---	0.00	30.065 
00:20	74.9	74.9	74.9	59	59.6	0	0	---	0.00	30.065 
00:25	74.9	74.9	74.9	59	59.6	0	0	---	0.00	30.065 
00:30	74.9	74.9	74.9	59	59.6	0	0	---	0.00	30.069 
00:35	75.1	75.1	77.5	59	59.8	0	0	---	0.00	30.069 
00:40	75.1	75.1	77.4	60	60.2	0	0	---	0.00	30.069 
00:45	75.1	75.1	77.4	60	60.2	0	0	---	0.00	30.070 
00:50	75.1	75.1	77.4	61	60.7	0	0	---	0.00	30.070 
00:55	74.9	74.9	74.9	62	61.0	0	0	---	0.00	30.070 
01:00	74.7	74.7	74.7	62	60.8	0	0	---	0.00	30.073 
01:05	74.7	74.7	74.7	62	60.8	0	0	---	0.00	30.073 
01:10	74.6	74.6	74.6	63	61.2	0	0	---	0.00	30.073 
01:15	74.4	74.4	74.4	63	61.0	0	0	---	0.00	30.075 
01:20	74.2	74.2	74.2	63	60.8	0	0	---	0.00	30.075 
01:25	74.0	74.0	74.0	63	60.6	0	0	---	0.00	30.075 
01:30	74.0	74.0	74.0	63	60.6	0	0	---	0.00	30.073 
01:35	73.9	73.9	73.9	64	60.9	0	0	---	0.00	30.073 
01:40	73.9	73.9	73.9	64	60.9	0	0	---	0.00	30.073 
01:45	73.9	73.9	73.9	64	60.9	0	0	---	0.00	30.067 
01:50	73.9	73.9	73.9	65	61.4	0	0	---	0.00	30.067 
01:55	73.7	73.7	73.7	65	61.2	0	0	---	0.00	30.067 
02:00	73.7	73.7	73.7	65	61.2	0	0	---	0.00	30.065 
02:05	73.7	73.7	73.7	65	61.2	0	0	---	0.00	30.065 
02:10	73.7	73.7	73.7	65	61.2	0	0	---	0.00	30.065 
02:15	73.7	73.7	73.7	65	61.2	0	1	135	0.00	30.059 
02:20	73.7	73.7	73.7	65	61.2	0	0	---	0.00	30.059 
02:25	73.9	73.9	73.9	65	61.4	0	0	---	0.00	30.059 
02:30	73.9	73.9	73.9	66	61.8	0	0	---	0.00	30.050 
02:35	73.9	73.9	73.9	66	61.8	0	0	---	0.00	30.050 
02:40	73.7	73.7	73.7	67	62.0	0	0	---	0.00	30.050 
02:45	73.5	73.5	73.5	67	61.9	0	0	---	0.00	30.042 
02:50	73.5	73.5	73.5	68	62.3	0	0	---	0.00	30.042 
02:55	73.3	73.3	73.3	68	62.1	0	0	---	0.00	30.042 
03:00	73.3	73.3	73.3	68	62.1	0	0	---	0.00	30.036 
03:05	73.2	73.2	73.2	69	62.4	0	0	---	0.00	30.036 
03:10	73.0	73.0	73.0	69	62.2	0	0	---	0.00	30.036 
03:15	73.0	73.0	73.0	69	62.2	0	0	---	0.00	30.033 
03:20	73.0	73.0	73.0	69	62.2	0	0	---	0.00	30.033 
03:25	73.0	73.0	73.0	69	62.2	0	1	135	0.00	30.033 
03:30	73.0	73.0	73.0	69	62.2	0	0	---	0.00	30.028 
03:35	73.0	73.0	73.0	69	62.2	0	0	---	0.00	30.028 
03:40	72.8	72.8	72.8	70	62.4	0	0	---	0.00	30.028 
03:45	72.7	72.7	72.7	70	62.3	0	0	---	0.00	30.026 
03:50	72.5	72.5	72.5	70	62.1	0	0	---	0.00	30.026 
03:55	72.3	72.3	72.3	71	62.4	0	0	---	0.00	30.026 
04:00	72.1	72.1	72.1	72	62.6	0	0	---	0.00	30.022 
04:05	72.0	72.0	72.0	72	62.5	0	0	---	0.00	30.022 
04:10	71.8	71.8	71.8	73	62.7	0	0	---	0.00	30.022 
04:15	71.8	71.8	71.8	73	62.7	0	0	---	0.00	30.022 
04:20	71.6	71.6	71.6	73	62.5	0	0	---	0.00	30.022 
04:25	71.5	71.5	71.5	74	62.8	0	0	---	0.00	30.022 
04:30	71.3	71.3	71.3	74	62.6	0	0	---	0.00	30.026 
04:35	71.1	71.1	71.1	74	62.4	0	0	---	0.00	30.026 
04:40	71.1	71.1	71.1	75	62.8	0	0	---	0.00	30.026 
04:45	70.9	70.9	70.9	75	62.6	0	0	---	0.00	30.025 
04:50	70.9	70.9	70.9	76	62.9	0	0	---	0.00	30.025 
04:55	70.9	70.9	70.9	76	62.9	0	0	---	0.00	30.025 
05:00	70.9	70.9	70.9	76	62.9	0	0	---	0.00	30.022 
05:05	70.8	70.8	70.8	76	62.8	0	0	---	0.00	30.022 
05:10	70.8	70.8	70.8	77	63.2	0	0	---	0.00	30.022 
05:15	70.8	70.8	70.8	77	63.2	0	0	---	0.00	30.026 
05:20	70.6	70.6	70.6	77	63.0	0	0	---	0.00	30.026 
05:25	70.6	70.6	70.6	77	63.0	0	0	---	0.00	30.026 
05:30	70.4	70.4	70.4	77	62.8	0	0	---	0.00	30.030 
05:35	70.4	70.4	70.4	78	63.2	0	0	---	0.00	30.030 
05:40	70.6	70.6	70.6	78	63.4	0	0	---	0.00	30.030 
05:45	70.6	70.6	70.6	78	63.4	0	0	---	0.00	30.039 
05:50	70.8	70.8	70.8	78	63.6	0	0	---	0.00	30.039 
05:55	70.8	70.8	70.8	78	63.6	0	0	---	0.00	30.039 
06:00	70.9	70.9	70.9	78	63.7	0	0	---	0.00	30.038 
06:05	71.1	71.1	71.1	78	63.9	0	0	---	0.00	30.038 
06:10	71.1	71.1	71.1	78	63.9	0	0	---	0.00	30.038 
06:15	71.3	71.3	71.3	77	63.7	0	0	---	0.00	30.038 
06:20	71.5	71.5	71.5	77	63.9	0	0	---	0.00	30.038 
06:25	71.6	71.6	71.6	77	64.0	0	1	135	0.00	30.038 
06:30	71.6	71.6	71.6	77	64.0	0	0	---	0.00	30.038 
06:35	71.8	71.8	71.8	77	64.2	0	1	135	0.00	30.038 
06:40	72.0	72.0	72.0	76	64.0	0	0	---	0.00	30.038 
06:45	72.1	72.1	72.1	76	64.1	0	0	---	0.00	30.040 
06:50	72.3	72.3	72.3	76	64.3	0	0	---	0.00	30.040 
06:55	72.5	72.5	72.5	76	64.5	0	1	135	0.00	30.040 
07:00	72.7	72.7	72.7	76	64.7	0	1	135	0.00	30.039 
07:05	72.8	72.8	72.8	76	64.8	0	1	135	0.00	30.039 
07:10	73.0	73.0	73.0	76	65.0	0	2	135	0.00	30.039 
07:15	73.2	73.2	73.2	76	65.2	0	2	135	0.00	30.043 
07:20	73.3	73.3	73.3	75	64.9	0	2	135	0.00	30.043 
07:25	73.7	73.7	73.7	75	65.3	0	2	135	0.00	30.043 
07:30	74.0	74.0	74.0	74	65.2	0	1	135	0.00	30.041 
07:35	74.6	74.6	74.6	74	65.7	0	2	135	0.00	30.041 
07:40	74.9	74.9	74.9	73	65.6	0	1	248	0.00	30.041 
07:45	75.1	75.1	76.5	73	65.8	0	2	248	0.00	30.047 
07:50	75.4	75.4	76.8	73	66.1	0	2	248	0.00	30.047 
07:55	75.6	75.6	77.0	73	66.3	0	2	248	0.00	30.047 
08:00	76.0	76.0	77.5	73	66.7	1	3	225	0.00	30.050 
08:05	76.1	76.1	77.7	72	66.4	0	2	292	0.00	30.050 
08:10	76.3	76.3	77.9	72	66.6	1	3	270	0.00	30.050 
08:15	76.5	76.5	78.1	73	67.2	0	3	270	0.00	30.060 
08:20	76.7	76.7	78.3	73	67.4	0	2	270	0.00	30.060 
08:25	76.8	76.8	78.5	72	67.1	0	3	270	0.00	30.060 
08:30	77.2	77.2	79.0	72	67.5	1	3	270	0.00	30.061 
08:35	77.6	77.6	79.5	71	67.4	0	3	270	0.00	30.061 
08:40	77.9	77.9	79.9	70	67.3	0	2	270	0.00	30.061 
08:45	78.6	78.6	80.8	70	68.0	0	3	270	0.00	30.059 
08:50	79.0	79.0	81.3	68	67.5	1	3	270	0.00	30.059 
08:55	79.4	79.4	81.9	69	68.3	1	3	270	0.00	30.059 
09:00	79.8	79.8	82.4	68	68.3	1	2	270	0.00	30.065 
09:05	79.8	79.8	82.3	67	67.8	1	4	270	0.00	30.065 
09:10	79.9	79.9	82.5	67	67.9	0	3	270	0.00	30.065 
09:15	80.3	80.3	83.0	67	68.3	1	3	270	0.00	30.069 
09:20	80.7	80.7	83.7	67	68.7	1	3	292	0.00	30.069 
09:25	81.1	81.1	84.1	66	68.6	1	5	270	0.00	30.069 
09:30	81.4	81.4	84.4	65	68.5	1	4	292	0.00	30.067 
09:35	81.8	81.8	84.9	64	68.4	1	4	292	0.00	30.067 
09:40	82.0	82.0	85.0	63	68.1	2	5	292	0.00	30.067 
09:45	81.6	81.6	84.4	63	67.8	3	5	292	0.00	30.070 
09:50	81.2	81.2	84.0	64	67.8	2	5	270	0.00	30.070 
09:55	80.7	80.7	83.4	65	67.8	2	3	270	0.00	30.070 
10:00	80.5	80.5	83.2	66	68.1	1	3	270	0.00	30.071 
10:05	80.3	80.3	82.9	66	67.9	1	4	270	0.00	30.071 
10:10	80.1	80.1	82.6	66	67.7	1	3	270	0.00	30.071 
10:15	80.1	80.1	82.7	67	68.1	0	2	270	0.00	30.070 
10:20	80.1	80.1	82.9	68	68.6	0	2	292	0.00	30.070 
10:25	80.3	80.3	83.0	67	68.3	1	3	270	0.00	30.070 
10:30	80.5	80.5	83.3	67	68.5	2	4	270	0.00	30.067 
10:35	80.7	80.7	83.5	66	68.3	2	4	270	0.00	30.067 
10:40	81.2	81.2	84.6	68	69.6	1	3	270	0.00	30.067 
10:45	81.6	81.6	84.7	65	68.7	1	4	270	0.00	30.063 
10:50	82.4	82.4	86.1	65	69.4	1	3	270	0.00	30.063 
10:55	83.0	83.0	86.4	62	68.6	1	3	270	0.00	30.063 
11:00	83.4	83.4	86.8	61	68.5	1	4	270	0.00	30.057 
11:05	83.8	83.8	86.9	59	67.9	1	3	292	0.00	30.057 
11:10	83.8	83.8	86.9	59	67.9	2	4	292	0.00	30.057 
11:15	84.0	84.0	87.3	59	68.1	2	5	292	0.00	30.050 
11:20	84.0	84.0	87.5	60	68.6	1	5	270	0.00	30.050 
11:25	84.3	84.3	88.0	60	68.9	1	3	270	0.00	30.050 
11:30	84.7	84.7	87.9	57	67.7	1	4	270	0.00	30.050 
11:35	84.9	84.9	88.5	58	68.4	1	3	270	0.00	30.050 
11:40	85.3	85.3	89.8	60	69.8	1	3	270	0.00	30.050 
11:45	85.1	85.1	88.5	57	68.1	1	4	270	0.00	30.057 
11:50	84.7	84.7	88.1	58	68.3	1	3	270	0.00	30.057 
11:55	84.0	84.0	87.3	59	68.1	2	4	270	0.00	30.057 
12:00	83.8	83.8	87.5	61	68.9	1	3	270	0.00	30.066 
12:05	83.8	83.8	87.5	61	68.9	1	3	270	0.00	30.066 
12:10	84.0	84.0	87.8	61	69.1	1	3	270	0.00	30.066 
12:15	84.0	84.0	87.8	61	69.1	2	4	270	0.00	30.065 
12:20	84.3	84.3	88.6	62	69.8	1	3	270	0.00	30.065 
12:25	84.7	84.7	89.0	61	69.7	1	4	270	0.00	30.065 
12:30	85.1	85.1	89.1	59	69.1	2	4	270	0.00	30.063 
12:35	84.9	84.9	89.4	61	69.9	2	3	270	0.00	30.063 
12:40	85.1	85.1	89.4	60	69.6	1	3	270	0.00	30.063 
12:45	85.3	85.3	90.1	61	70.3	1	3	270	0.00	30.061 
12:50	85.9	85.9	90.2	58	69.4	1	3	270	0.00	30.061 
12:55	86.5	86.5	91.7	59	70.4	1	4	270	0.00	30.061 
13:00	87.0	87.0	92.7	59	70.9	1	2	270	0.00	30.059 
13:05	87.0	87.0	92.3	58	70.4	2	3	270	0.00	30.059 
13:10	87.2	87.2	92.7	58	70.6	1	3	270	0.00	30.059 
13:15	87.4	87.4	92.6	57	70.3	0	2	270	0.00	30.050 
13:20	87.8	87.8	93.8	58	71.1	1	3	112	0.00	30.050 
13:25	88.0	88.0	94.3	58	71.3	1	4	112	0.00	30.050 
13:30	88.2	88.2	93.8	56	70.5	1	3	112	0.00	30.045 
13:35	88.4	88.4	94.2	56	70.7	1	5	292	0.00	30.045 
13:40	88.6	88.6	94.1	55	70.3	1	4	315	0.00	30.045 
13:45	88.6	88.6	94.6	56	70.9	1	3	315	0.00	30.040 
13:50	88.6	88.6	94.6	56	70.9	1	3	292	0.00	30.040 
13:55	88.2	88.2	92.9	54	69.4	1	3	292	0.00	30.040 
14:00	88.2	88.2	94.2	57	71.0	0	1	292	0.00	30.032 
14:05	88.0	88.0	93.0	55	69.8	1	3	292	0.00	30.032 
14:10	87.8	87.8	92.6	55	69.6	1	3	292	0.00	30.032 
14:15	88.0	88.0	93.8	57	70.8	1	3	292	0.00	30.034 
14:20	88.4	88.4	94.2	56	70.7	1	3	90	0.00	30.034 
14:25	88.4	88.4	93.7	55	70.1	1	3	90	0.00	30.034 
14:30	88.6	88.6	94.6	56	70.9	1	3	90	0.00	30.026 
14:35	89.3	89.3	96.0	56	71.5	1	4	90	0.00	30.026 
14:40	89.7	89.7	95.4	53	70.3	1	4	292	0.00	30.026 
14:45	89.9	89.9	96.3	54	71.0	1	6	248	0.00	30.020 
14:50	89.5	89.5	95.0	53	70.1	1	4	22	0.00	30.020 
14:55	88.8	88.8	94.1	54	70.0	1	3	292	0.00	30.020 
15:00	88.4	88.4	93.3	54	69.6	0	3	292	0.00	30.024 
15:05	88.0	88.0	92.6	54	69.2	1	3	270	0.00	30.024 
15:10	87.6	87.6	91.8	54	68.9	0	2	270	0.00	30.024 
15:15	87.6	87.6	92.6	56	69.9	0	1	270	0.00	30.019 
15:20	87.8	87.8	92.2	54	69.0	1	4	270	0.00	30.019 
15:25	88.2	88.2	93.4	55	70.0	1	3	292	0.00	30.019 
15:30	88.8	88.8	94.5	55	70.5	1	2	270	0.00	30.010 
15:35	89.7	89.7	95.9	54	70.8	1	3	292	0.00	30.010 
15:40	89.9	89.9	95.8	53	70.4	1	5	292	0.00	30.010 
15:45	90.1	90.1	96.2	53	70.6	1	3	270	0.00	30.001 
15:50	90.5	90.5	96.5	52	70.4	1	3	270	0.00	30.001 
15:55	90.7	90.7	96.9	52	70.6	1	3	270	0.00	30.001 
16:00	90.1	90.1	95.7	52	70.1	1	3	248	0.00	29.997 
16:05	89.9	89.9	95.3	52	69.9	1	3	248	0.00	29.997 
16:10	90.1	90.1	96.7	54	71.2	0	2	248	0.00	29.997 
16:15	90.3	90.3	95.6	51	69.7	1	2	270	0.00	29.987 
16:20	89.7	89.7	94.5	51	69.1	1	3	270	0.00	29.987 
16:25	89.0	89.0	92.8	50	67.9	1	3	315	0.00	29.987 
16:30	88.2	88.2	92.1	52	68.3	1	4	270	0.00	29.982 
16:35	87.0	87.0	90.1	52	67.2	2	4	292	0.00	29.982 
16:40	86.5	86.5	89.9	54	67.8	2	3	292	0.00	29.982 
16:45	87.2	87.2	90.8	53	67.9	2	5	292	0.00	29.974 
16:50	87.8	87.8	91.1	51	67.4	1	4	292	0.00	29.974 
16:55	88.2	88.2	91.4	50	67.2	1	3	292	0.00	29.974 
17:00	87.8	87.8	91.1	51	67.4	2	6	292	0.00	29.981 
17:05	85.9	85.9	87.7	50	65.1	4	7	270	0.00	29.981 
17:10	84.5	84.5	86.3	52	64.9	1	5	248	0.00	29.981 
17:15	84.0	84.0	85.6	52	64.4	1	6	270	0.00	29.991 
17:20	83.8	83.8	85.5	53	64.8	1	6	315	0.00	29.991 
17:25	83.6	83.6	85.5	54	65.2	2	4	270	0.00	29.991 
17:30	83.2	83.2	85.1	55	65.3	2	4	270	0.00	29.989 
17:35	82.4	82.4	84.2	56	65.1	2	5	270	0.00	29.989 
17:40	82.0	82.0	84.2	59	66.2	0	2	292	0.00	29.989 
17:45	82.2	82.2	84.3	58	65.9	1	3	292	0.00	29.975 
17:50	82.2	82.2	84.0	56	64.9	1	3	292	0.00	29.975 
17:55	82.0	82.0	83.9	57	65.2	1	3	292	0.00	29.975 
18:00	81.6	81.6	83.5	58	65.4	0	2	292	0.00	29.976 
18:05	81.4	81.4	82.8	55	63.7	0	2	292	0.00	29.976 
18:10	81.4	81.4	82.8	55	63.7	0	2	292	0.00	29.976 
18:15	81.6	81.6	82.8	53	62.8	1	3	292	0.00	29.981 
18:20	81.6	81.6	82.9	54	63.3	1	3	248	0.00	29.981 
18:25	81.6	81.6	82.8	53	62.8	1	2	248	0.00	29.981 
18:30	81.8	81.8	83.3	55	64.0	0	2	248	0.00	29.989 
18:35	82.0	82.0	83.6	55	64.2	0	2	248	0.00	29.989 
18:40	82.0	82.0	83.9	57	65.2	0	2	248	0.00	29.989 
18:45	81.8	81.8	83.6	57	65.0	1	2	248	0.00	29.986 
18:50	81.6	81.6	83.5	58	65.4	0	1	248	0.00	29.986 
18:55	81.8	81.8	83.6	57	65.0	0	1	248	0.00	29.986 
19:00	82.0	82.0	84.1	58	65.7	0	1	248	0.00	29.988 
19:05	82.0	82.0	83.9	57	65.2	0	1	248	0.00	29.988 
19:10	81.8	81.8	83.8	58	65.6	1	2	248	0.00	29.988 
19:15	81.8	81.8	83.8	58	65.6	0	2	248	0.00	29.984 
19:20	82.0	82.0	83.9	57	65.2	1	3	248	0.00	29.984 
19:25	82.0	82.0	84.1	58	65.7	0	2	248	0.00	29.984 
19:30	82.2	82.2	84.3	58	65.9	0	1	248	0.00	29.995 
19:35	82.4	82.4	84.6	58	66.1	1	3	270	0.00	29.995 
19:40	82.0	82.0	83.7	56	64.7	0	2	292	0.00	29.995 
19:45	81.6	81.6	83.5	58	65.4	1	3	292	0.00	30.000 
19:50	81.1	81.1	82.9	58	64.9	0	2	292	0.00	30.000 
19:55	80.9	80.9	82.8	59	65.2	0	1	292	0.00	30.000 
20:00	80.5	80.5	82.3	59	64.8	0	1	292	0.00	29.999 
20:05	80.3	80.3	82.2	60	65.1	0	1	292	0.00	29.999 
20:10	80.3	80.3	82.3	61	65.6	0	0	---	0.00	29.999 
20:15	79.9	79.9	81.8	61	65.2	0	1	292	0.00	29.999 
20:20	79.8	79.8	81.8	62	65.6	0	1	292	0.00	29.999 
20:25	79.6	79.6	81.5	62	65.4	0	1	292	0.00	29.999 
20:30	79.6	79.6	81.5	62	65.4	0	0	---	0.00	30.001 
20:35	79.4	79.4	81.4	63	65.7	0	0	---	0.00	30.001 
20:40	79.4	79.4	81.4	63	65.7	0	1	292	0.00	30.001 
20:45	79.2	79.2	81.1	63	65.5	0	0	---	0.00	30.009 
20:50	79.0	79.0	81.0	64	65.8	0	0	---	0.00	30.009 
20:55	78.8	78.8	80.7	64	65.6	0	0	---	0.00	30.009 
21:00	78.6	78.6	80.6	65	65.8	0	0	---	0.00	30.018 
21:05	78.5	78.5	80.4	65	65.7	0	0	---	0.00	30.018 
21:10	78.3	78.3	80.2	65	65.5	0	1	292	0.00	30.018 
21:15	78.1	78.1	79.9	64	64.9	0	1	292	0.00	30.020 
21:20	78.1	78.1	79.9	64	64.9	0	2	292	0.00	30.020 
21:25	77.9	77.9	79.7	64	64.7	0	4	90	0.00	30.020 
21:30	77.9	77.9	79.7	65	65.2	0	1	90	0.00	30.020 
21:35	77.7	77.7	79.6	66	65.4	0	0	---	0.00	30.020 
21:40	77.4	77.4	79.2	68	66.0	0	0	---	0.00	30.020 
21:45	77.2	77.2	79.0	69	66.2	0	1	90	0.00	30.025 
21:50	77.0	77.0	78.8	69	66.0	0	2	90	0.00	30.025 
21:55	76.7	76.7	78.4	70	66.2	0	1	90	0.00	30.025 
22:00	76.5	76.5	78.2	70	66.0	0	1	90	0.00	30.020 
22:05	76.3	76.3	78.0	70	65.8	0	1	90	0.00	30.020 
22:10	76.1	76.1	77.8	70	65.6	0	1	90	0.00	30.020 
22:15	76.1	76.1	77.8	70	65.6	0	3	248	0.00	30.022 
22:20	76.1	76.1	77.8	69	65.2	0	2	248	0.00	30.022 
22:25	76.1	76.1	77.8	69	65.2	0	1	248	0.00	30.022 
22:30	76.1	76.1	77.8	69	65.2	0	1	248	0.00	30.031 
22:35	76.0	76.0	77.7	69	65.1	0	1	248	0.00	30.031 
22:40	75.8	75.8	77.4	70	65.3	0	1	248	0.00	30.031 
22:45	75.6	75.6	77.2	71	65.5	0	1	248	0.00	30.034 
22:50	75.4	75.4	77.0	71	65.3	0	3	248	0.00	30.034 
22:55	75.3	75.3	76.9	71	65.2	0	0	---	0.00	30.034 
23:00	75.1	75.1	76.6	72	65.4	0	0	---	0.00	30.033 
23:05	74.7	74.7	74.7	72	65.1	0	1	248	0.00	30.033 
23:10	74.6	74.6	74.6	72	65.0	0	1	248	0.00	30.033 
23:15	74.4	74.4	74.4	73	65.2	0	0	---	0.00	30.034 
23:20	74.2	74.2	74.2	73	65.0	0	0	---	0.00	30.034 
23:25	74.0	74.0	74.0	73	64.8	0	0	---	0.00	30.034 
23:30	74.0	74.0	74.0	73	64.8	0	0	---	0.00	30.034 
23:35	73.9	73.9	73.9	73	64.7	0	0	---	0.00	30.034 
23:40	73.7	73.7	73.7	74	64.9	0	1	248	0.00	30.034 
23:45	73.5	73.5	73.5	74	64.7	0	0	---	0.00	30.044 
23:50	73.3	73.3	73.3	75	64.9	0	0	---	0.00	30.044 
23:55	73.2	73.2	73.2	75	64.8	0	0	---	0.00	30.044 

CoCoRaHS
IN-AL-39
A2 Web Hosting
Creative Commons License
GoDaddy
search engine by freefind advanced

loaded 2018-11-17 14:09:15 • last modified 2010-11-18 10:43:29
Privacy PolicyDisclaimer
• wx.awcolley.com is powered by PmWiki v.2002016 •
• all content (unless otherwise noted) © 2018 A W Colley